Time;durP1;ratioP1;P1;durP2;ratioP2;P2;SDS_P1;SDS_P2;PMS_P1;PMS_P2;Temp;Humidity;BMP_temperature;BMP_pressure;BME280_temperature;BME280_humidity;BME280_pressure;Samples;Min_cycle;Max_cycle;Signal;HPM_P1;HPM_P2
2022/12/23 00:03:00;;;;;;;;;;;8.10;99.90;;;7.25;100.00;94941.09;10550906;27;1922;-79
2022/12/23 00:08:08;;;;;;;;;;;8.20;99.90;;;7.26;100.00;94932.03;10560575;27;1945;-75
2022/12/23 00:18:36;;;;;;;;;;;8.10;99.90;;;7.11;100.00;94905.31;10576331;27;1977;-76
2022/12/23 00:23:46;;;;;;;;;;;8.10;99.90;;;7.03;100.00;94910.16;10561907;27;2051;-76
2022/12/23 00:29:01;;;;;;;;;;;8.00;99.90;;;7.07;100.00;94896.28;10564878;27;4921;-77
2022/12/23 00:34:06;;;;;;;;;;;8.10;99.90;;;7.02;100.00;94905.91;10562900;27;2112;-75
2022/12/23 00:44:42;;;;;;;;;;;8.00;99.90;;;6.88;100.00;94831.94;10563535;28;1967;-76
2022/12/23 00:49:55;;;;;;;;;;;7.90;99.90;;;6.90;100.00;94854.63;10575551;27;1988;-75
2022/12/23 00:55:09;;;;;;;;;;;8.00;99.90;;;6.83;100.00;94831.97;10577443;27;1978;-77
2022/12/23 01:00:14;;;;;;;;;;;7.80;99.90;;;6.83;100.00;94829.28;10551961;28;1922;-77
2022/12/23 01:05:38;;;;;;;;;;;7.80;99.90;;;6.85;100.00;94825.25;10564447;27;2006;-77
2022/12/23 01:10:45;;;;;;;;;;;7.80;99.90;;;6.82;100.00;94831.16;10568553;27;2080;-74
2022/12/23 01:15:50;;;;;;;;;;;7.70;99.90;;;6.80;100.00;94806.56;10589125;27;1910;-75
2022/12/23 01:20:56;;;;;;;;;;;7.80;99.90;;;6.78;100.00;94804.19;10562823;27;1950;-75
2022/12/23 01:26:01;;;;;;;;;;;7.70;99.90;;;6.77;100.00;94805.25;10575300;27;1973;-76
2022/12/23 01:31:09;;;;;;;;;;;7.70;99.90;;;6.77;100.00;94821.28;10554471;27;4973;-75
2022/12/23 01:36:13;;;;;;;;;;;7.70;99.90;;;6.77;100.00;94823.97;10574416;27;1977;-74
2022/12/23 01:46:41;;;;;;;;;;;7.70;99.90;;;6.88;100.00;94819.38;10572498;27;2105;-74
2022/12/23 01:51:44;;;;;;;;;;;7.70;99.90;;;6.92;100.00;94823.09;10579010;27;2081;-74
2022/12/23 01:56:53;;;;;;;;;;;7.80;99.90;;;7.00;100.00;94825.22;10570479;27;1314;-74
2022/12/23 02:12:40;;;;;;;;;;;7.90;99.90;;;7.03;100.00;94808.63;10562898;27;1916;-74
2022/12/23 02:17:43;;;;;;;;;;;7.90;99.90;;;7.08;100.00;94810.47;10555989;27;2136;-77
2022/12/23 02:22:47;;;;;;;;;;;7.90;99.90;;;7.08;100.00;94823.03;10566735;27;2130;-75
2022/12/23 02:27:50;;;;;;;;;;;8.00;99.90;;;7.12;100.00;94824.06;10590445;27;5024;-74
2022/12/23 02:32:58;;;;;;;;;;;8.00;99.90;;;7.16;100.00;94825.13;10591929;27;1957;-75
2022/12/23 02:38:02;;;;;;;;;;;8.00;99.90;;;7.16;100.00;94830.47;10558445;27;1920;-74
2022/12/23 02:43:05;;;;;;;;;;;8.00;99.90;;;7.30;100.00;94836.81;10559716;27;1961;-74
2022/12/23 02:48:12;;;;;;;;;;;8.20;99.90;;;7.42;100.00;94839.97;10566784;27;1965;-74
2022/12/23 02:53:16;;;;;;;;;;;8.20;99.90;;;7.60;100.00;94830.50;10570890;27;2040;-77
2022/12/23 02:58:22;;;;;;;;;;;8.30;99.90;;;7.77;100.00;94835.47;10571701;27;1930;-75
2022/12/23 03:03:27;;;;;;;;;;;8.60;99.90;;;7.95;100.00;94834.81;10546714;27;1972;-75
2022/12/23 03:08:32;;;;;;;;;;;8.70;99.90;;;8.04;100.00;94822.41;10549818;28;2118;-74
2022/12/23 03:13:36;;;;;;;;;;;8.90;99.90;;;8.03;100.00;94838.75;10588647;27;2123;-74
2022/12/23 03:18:44;;;;;;;;;;;8.90;99.90;;;8.10;100.00;94829.31;10569013;27;1971;-75
2022/12/23 03:23:48;;;;;;;;;;;9.00;99.90;;;8.13;100.00;94838.66;10574801;27;1914;-76
2022/12/23 03:28:58;;;;;;;;;;;9.10;99.90;;;8.23;100.00;94827.09;10570698;27;4930;-76
2022/12/23 03:34:02;;;;;;;;;;;9.10;99.90;;;8.32;100.00;94830.72;10538415;27;2070;-74
2022/12/23 03:39:06;;;;;;;;;;;9.20;99.90;;;8.37;100.00;94823.47;10565785;27;2090;-75
2022/12/23 03:44:12;;;;;;;;;;;9.20;99.90;;;8.50;100.00;94838.09;10570854;27;1926;-75
2022/12/23 03:49:15;;;;;;;;;;;9.30;99.90;;;8.57;100.00;94843.13;10585990;27;2041;-76
2022/12/23 03:54:30;;;;;;;;;;;9.50;99.90;;;8.65;100.00;94846.00;10566225;27;1993;-75
2022/12/23 03:59:35;;;;;;;;;;;9.60;99.90;;;8.68;100.00;94846.50;10557190;27;1876;-74
2022/12/23 04:04:39;;;;;;;;;;;9.50;99.90;;;8.54;100.00;94855.22;10555013;27;1980;-75
2022/12/23 04:09:46;;;;;;;;;;;9.60;99.90;;;8.56;100.00;94860.28;10570838;27;2068;-75
2022/12/23 04:14:52;;;;;;;;;;;9.50;99.90;;;8.58;100.00;94850.06;10586953;27;1959;-74
2022/12/23 04:19:58;;;;;;;;;;;9.60;99.90;;;8.59;100.00;94857.84;10579041;27;2278;-74
2022/12/23 04:25:02;;;;;;;;;;;9.60;99.90;;;8.54;100.00;94865.91;10568352;27;2254;-74
2022/12/23 04:30:09;;;;;;;;;;;9.50;99.90;;;8.57;100.00;94870.69;10571801;27;4998;-74
2022/12/23 04:35:17;;;;;;;;;;;9.50;99.90;;;8.52;100.00;94883.34;10553075;28;1957;-74
2022/12/23 04:40:20;;;;;;;;;;;9.40;99.90;;;8.52;100.00;94888.69;10568087;28;2069;-75
2022/12/23 04:45:32;;;;;;;;;;;9.50;99.90;;;8.55;100.00;94886.25;10572587;28;2185;-75
2022/12/23 04:50:39;;;;;;;;;;;9.50;99.90;;;8.63;100.00;94891.00;10551763;28;1989;-75
2022/12/23 04:55:43;;;;;;;;;;;9.60;99.90;;;8.58;100.00;94899.06;10543425;28;2503;-75
2022/12/23 05:00:51;;;;;;;;;;;9.60;99.90;;;8.65;100.00;94902.25;10544194;28;2011;-75
2022/12/23 05:06:10;;;;;;;;;;;9.60;99.90;;;8.71;100.00;94891.47;10543431;28;2152;-75
2022/12/23 05:11:26;;;;;;;;;;;9.60;99.90;;;8.78;100.00;94897.28;10531924;28;2091;-75
2022/12/23 05:16:32;;;;;;;;;;;9.70;99.90;;;8.84;100.00;94896.97;10557501;28;2012;-74
2022/12/23 05:21:39;;;;;;;;;;;9.70;99.90;;;8.92;100.00;94911.63;10543871;28;2108;-75
2022/12/23 05:26:45;;;;;;;;;;;9.80;99.90;;;8.98;100.00;94905.13;10561429;28;5000;-75
2022/12/23 05:31:51;;;;;;;;;;;9.90;99.90;;;9.05;100.00;94902.13;10551653;27;2117;-76
2022/12/23 05:36:58;;;;;;;;;;;9.90;99.90;;;8.98;100.00;94915.88;10537122;27;1910;-75
2022/12/23 05:42:01;;;;;;;;;;;9.90;99.90;;;8.95;100.00;94911.06;10571110;28;2069;-77
2022/12/23 05:47:04;;;;;;;;;;;10.00;99.90;;;9.00;100.00;94915.56;10551992;27;2074;-75
2022/12/23 05:52:10;;;;;;;;;;;9.90;99.90;;;8.95;100.00;94924.47;10569462;27;1811;-74
2022/12/23 05:57:17;;;;;;;;;;;9.90;99.90;;;8.91;100.00;94928.81;10581161;27;2133;-76
2022/12/23 06:02:21;;;;;;;;;;;9.90;99.90;;;8.96;100.00;94923.38;10564038;27;1905;-76
2022/12/23 06:07:26;;;;;;;;;;;9.90;99.90;;;8.91;100.00;94915.41;10567663;27;1984;-74
2022/12/23 06:12:29;;;;;;;;;;;10.00;99.90;;;9.07;100.00;94922.19;10566628;27;2207;-77
2022/12/23 06:17:33;;;;;;;;;;;10.00;99.90;;;9.16;100.00;94920.50;10563252;28;2016;-78
2022/12/23 06:22:41;;;;;;;;;;;10.10;99.90;;;9.24;100.00;94942.41;10593927;27;1884;-76
2022/12/23 06:27:45;;;;;;;;;;;10.10;99.90;;;9.35;100.00;94935.81;10570236;27;4988;-75
2022/12/23 06:32:49;;;;;;;;;;;10.20;99.90;;;9.36;100.00;94950.84;10562304;27;1990;-76
2022/12/23 06:37:59;;;;;;;;;;;10.30;99.90;;;9.32;100.00;94957.84;10547079;27;1963;-76
2022/12/23 06:43:03;;;;;;;;;;;10.40;99.90;;;9.45;100.00;94965.22;10564059;27;2015;-76
2022/12/23 06:48:06;;;;;;;;;;;10.30;99.90;;;9.70;100.00;94983.69;10591555;27;1966;-76
2022/12/23 06:53:10;;;;;;;;;;;10.50;99.90;;;9.66;100.00;94971.13;10538564;27;1997;-76
2022/12/23 06:58:15;;;;;;;;;;;10.60;99.90;;;9.63;100.00;94983.25;10546622;27;2015;-74
2022/12/23 07:03:19;;;;;;;;;;;10.60;99.90;;;9.60;100.00;94999.91;10575253;27;1988;-76
2022/12/23 07:08:25;;;;;;;;;;;10.50;99.90;;;9.61;100.00;95001.53;10586215;27;2353;-75
2022/12/23 07:13:29;;;;;;;;;;;10.60;99.90;;;9.64;100.00;95019.72;10569415;27;1990;-75
2022/12/23 07:18:33;;;;;;;;;;;10.60;99.90;;;9.77;100.00;95020.13;10569438;27;2021;-77
2022/12/23 07:23:37;;;;;;;;;;;10.60;99.90;;;9.81;100.00;95021.97;10551307;27;2006;-76
2022/12/23 07:28:41;;;;;;;;;;;10.70;99.90;;;9.89;100.00;95023.22;10573868;27;4981;-76
2022/12/23 07:33:46;;;;;;;;;;;10.70;99.90;;;9.89;100.00;95033.94;10560729;27;2075;-77
2022/12/23 07:38:53;;;;;;;;;;;10.80;99.90;;;9.86;100.00;95023.78;10564238;27;2100;-76
2022/12/23 07:43:57;;;;;;;;;;;10.80;99.90;;;9.91;100.00;95039.81;10565473;28;2043;-78
2022/12/23 07:49:00;;;;;;;;;;;10.80;99.90;;;9.94;100.00;95036.56;10563755;27;2129;-78
2022/12/23 07:54:04;;;;;;;;;;;10.80;99.90;;;9.89;100.00;95031.25;10566156;27;2169;-77
2022/12/23 07:59:07;;;;;;;;;;;10.80;99.90;;;9.94;100.00;95041.94;10580196;27;1984;-76
2022/12/23 08:04:10;;;;;;;;;;;10.80;99.90;;;9.95;100.00;95036.28;10568573;28;2136;-77
2022/12/23 08:09:14;;;;;;;;;;;10.80;99.90;;;10.03;100.00;95038.31;10549875;27;2118;-76
2022/12/23 08:14:18;;;;;;;;;;;10.80;99.90;;;10.09;100.00;95046.31;10548623;28;2169;-77
2022/12/23 08:19:22;;;;;;;;;;;10.90;99.90;;;9.98;100.00;95049.13;10565887;27;2023;-76
2022/12/23 08:24:27;;;;;;;;;;;10.90;99.90;;;10.05;100.00;95048.78;10571089;27;1978;-76
2022/12/23 08:29:31;;;;;;;;;;;11.00;99.90;;;9.95;100.00;95055.06;10566444;27;4933;-77
2022/12/23 08:34:39;;;;;;;;;;;10.90;99.90;;;9.80;100.00;95047.22;10553325;27;2017;-76
2022/12/23 08:39:50;;;;;;;;;;;10.80;99.90;;;9.77;100.00;95046.97;10563702;28;2006;-76
2022/12/23 08:45:03;;;;;;;;;;;10.70;99.90;;;9.95;100.00;95043.53;10580582;28;2080;-76
2022/12/23 08:50:07;;;;;;;;;;;10.70;99.90;;;10.16;100.00;95044.88;10565666;28;1977;-76
2022/12/23 08:55:17;;;;;;;;;;;10.90;99.90;;;10.35;100.00;95046.81;10575899;28;2048;-77
2022/12/23 09:00:22;;;;;;;;;;;11.10;99.90;;;10.73;100.00;95055.69;10550058;28;2127;-75
2022/12/23 09:05:26;;;;;;;;;;;11.30;99.90;;;10.91;100.00;95078.28;10563015;27;2001;-76
2022/12/23 09:10:32;;;;;;;;;;;11.50;99.90;;;10.86;100.00;95095.28;10553885;28;2141;-77
2022/12/23 09:15:41;;;;;;;;;;;11.80;99.90;;;10.68;100.00;95107.63;10592824;27;2115;-78
2022/12/23 09:20:46;;;;;;;;;;;11.70;99.90;;;10.70;100.00;95108.16;10552087;27;2043;-75
2022/12/23 09:25:55;;;;;;;;;;;11.60;99.90;;;10.71;100.00;95093.63;10576827;27;1960;-78
2022/12/23 09:30:59;;;;;;;;;;;11.60;99.90;;;10.92;100.00;95077.19;10572081;27;5049;-78
2022/12/23 09:36:08;;;;;;;;;;;11.60;99.90;;;10.91;100.00;95075.59;10569634;27;2029;-77
2022/12/23 09:41:12;;;;;;;;;;;11.70;99.90;;;11.09;100.00;95074.75;10569916;27;1973;-76
2022/12/23 09:46:18;;;;;;;;;;;11.80;99.90;;;10.96;100.00;95083.56;10575869;27;1957;-77
2022/12/23 09:51:22;;;;;;;;;;;11.90;99.90;;;10.70;100.00;95075.09;10537732;27;1989;-77
2022/12/23 09:56:27;;;;;;;;;;;11.70;99.90;;;10.51;100.00;95073.19;10583441;27;2171;-76
2022/12/23 10:01:36;;;;;;;;;;;11.50;99.90;;;10.59;100.00;95069.06;10555707;28;2035;-77
2022/12/23 10:06:48;;;;;;;;;;;11.50;99.90;;;10.74;100.00;95066.13;10587615;27;1984;-75
2022/12/23 10:11:59;;;;;;;;;;;11.60;99.90;;;10.85;100.00;95061.41;10554229;28;1976;-76
2022/12/23 10:17:02;;;;;;;;;;;11.60;99.90;;;10.87;100.00;95055.75;10570131;28;1969;-77
2022/12/23 10:22:06;;;;;;;;;;;11.60;99.90;;;11.02;100.00;95061.69;10569056;27;2052;-76
2022/12/23 10:27:14;;;;;;;;;;;11.80;99.90;;;11.15;100.00;95041.31;10549510;27;4981;-76
2022/12/23 10:32:26;;;;;;;;;;;11.90;99.90;;;11.24;100.00;95036.84;10576214;27;2077;-77
2022/12/23 10:37:31;;;;;;;;;;;12.00;99.90;;;11.30;100.00;95046.41;10589075;27;1964;-76
2022/12/23 10:42:43;;;;;;;;;;;12.10;99.90;;;11.31;100.00;95049.91;10573843;27;2088;-78
2022/12/23 10:47:49;;;;;;;;;;;12.10;99.90;;;11.28;100.00;95037.06;10569417;27;2129;-77
2022/12/23 10:52:52;;;;;;;;;;;12.20;99.90;;;11.27;100.00;95040.84;10571744;27;2191;-76
2022/12/23 10:57:58;;;;;;;;;;;12.10;99.90;;;11.12;100.00;95047.25;10572198;27;2066;-76
2022/12/23 11:03:01;;;;;;;;;;;12.10;99.90;;;10.95;100.00;95055.88;10563588;27;1922;-75
2022/12/23 11:08:10;;;;;;;;;;;11.90;99.90;;;10.75;100.00;95048.94;10553444;27;2128;-75
2022/12/23 11:13:16;;;;;;;;;;;11.80;99.90;;;10.62;100.00;95057.72;10557724;27;2113;-76
2022/12/23 11:18:20;;;;;;;;;;;11.50;99.90;;;10.62;100.00;95046.16;10533695;27;1965;-77
2022/12/23 11:23:24;;;;;;;;;;;11.50;99.90;;;10.68;100.00;95039.63;10532425;27;2008;-75
2022/12/23 11:28:30;;;;;;;;;;;11.40;99.90;;;10.66;100.00;95042.59;10560808;27;4977;-76
2022/12/23 11:33:34;;;;;;;;;;;11.50;99.90;;;10.68;100.00;95031.56;10543436;27;1987;-76
2022/12/23 11:38:39;;;;;;;;;;;11.50;99.90;;;10.73;100.00;95020.72;10564422;27;1941;-77
2022/12/23 11:43:43;;;;;;;;;;;11.50;99.90;;;10.79;100.00;95025.75;10568608;27;1999;-77
2022/12/23 11:48:46;;;;;;;;;;;11.60;99.90;;;10.91;100.00;95019.13;10571761;27;2429;-77
2022/12/23 11:53:57;;;;;;;;;;;11.70;99.90;;;10.91;100.00;95011.06;10577167;27;1994;-77
2022/12/23 11:59:01;;;;;;;;;;;11.80;99.90;;;11.00;100.00;95001.22;10542785;28;2005;-76
2022/12/23 12:04:04;;;;;;;;;;;11.80;99.90;;;11.02;100.00;94996.34;10579463;27;1905;-77
2022/12/23 12:09:09;;;;;;;;;;;11.90;99.90;;;11.17;100.00;94989.91;10545319;27;1970;-77
2022/12/23 12:14:14;;;;;;;;;;;11.90;99.90;;;11.23;100.00;94988.72;10564378;27;1993;-77
2022/12/23 12:19:21;;;;;;;;;;;12.00;99.90;;;11.27;100.00;94985.16;10568390;27;2014;-74
2022/12/23 12:24:29;;;;;;;;;;;12.10;99.90;;;11.27;100.00;94958.25;10573894;27;2051;-78
2022/12/23 12:29:33;;;;;;;;;;;12.20;99.90;;;11.16;100.00;94948.75;10573636;27;5048;-76
2022/12/23 12:34:38;;;;;;;;;;;12.10;99.90;;;11.13;100.00;94962.00;10571018;27;1965;-76
2022/12/23 12:39:42;;;;;;;;;;;12.00;99.90;;;11.04;100.00;94951.13;10570927;28;1942;-76
2022/12/23 12:44:46;;;;;;;;;;;12.00;99.90;;;10.99;100.00;94948.53;10583438;27;2251;-77
2022/12/23 12:49:50;;;;;;;;;;;11.90;99.90;;;10.89;100.00;94940.66;10550597;28;1980;-78
2022/12/23 12:54:56;;;;;;;;;;;11.90;99.90;;;10.81;100.00;94945.63;10554779;28;1981;-78
2022/12/23 13:00:01;;;;;;;;;;;11.80;99.90;;;10.71;100.00;94943.09;10557194;28;2084;-77
2022/12/23 13:05:08;;;;;;;;;;;11.60;99.90;;;10.60;100.00;94946.22;10576217;28;1978;-77
2022/12/23 13:10:12;;;;;;;;;;;11.60;99.90;;;10.50;100.00;94947.19;10590539;28;1994;-78
2022/12/23 13:15:17;;;;;;;;;;;11.40;99.90;;;10.42;100.00;94945.16;10568254;28;1981;-75
2022/12/23 13:20:20;;;;;;;;;;;11.30;99.90;;;10.39;100.00;94943.06;10562087;28;1980;-76
2022/12/23 13:25:28;;;;;;;;;;;11.20;99.90;;;10.31;100.00;94941.03;10562722;28;1992;-75
2022/12/23 13:30:34;;;;;;;;;;;11.30;99.90;;;10.24;100.00;94918.03;10573661;28;5044;-75
2022/12/23 13:35:41;;;;;;;;;;;11.20;99.90;;;10.14;100.00;94920.84;10550936;28;1949;-75
2022/12/23 13:40:44;;;;;;;;;;;11.10;99.90;;;10.07;100.00;94923.09;10577229;28;2214;-73
2022/12/23 13:45:51;;;;;;;;;;;11.00;99.90;;;10.05;100.00;94925.25;10571332;28;2044;-74
2022/12/23 13:51:00;;;;;;;;;;;11.00;99.90;;;10.00;100.00;94922.66;10554115;28;1908;-73
2022/12/23 13:56:16;;;;;;;;;;;10.90;99.90;;;9.92;100.00;94920.59;10596654;27;1249;-75
2022/12/23 14:01:19;;;;;;;;;;;10.90;99.90;;;9.86;100.00;94919.09;10596524;27;1359;-75
2022/12/23 14:06:22;;;;;;;;;;;10.80;99.90;;;9.84;100.00;94908.63;10592090;27;1994;-74
2022/12/23 14:11:28;;;;;;;;;;;10.80;99.90;;;9.79;100.00;94913.28;10563688;27;1985;-73
2022/12/23 14:16:31;;;;;;;;;;;10.70;99.90;;;9.76;100.00;94901.25;10577755;27;1956;-76
2022/12/23 14:21:38;;;;;;;;;;;10.70;99.90;;;9.71;100.00;94907.47;10570129;27;1989;-75
2022/12/23 14:26:41;;;;;;;;;;;10.70;99.90;;;9.73;100.00;94891.91;10573738;27;5005;-74
2022/12/23 14:31:47;;;;;;;;;;;10.50;99.90;;;9.66;100.00;94912.09;10553834;27;1993;-74
2022/12/23 14:36:50;;;;;;;;;;;10.50;99.90;;;9.62;100.00;94895.00;10582434;27;2095;-75
2022/12/23 14:41:58;;;;;;;;;;;10.60;99.90;;;9.62;100.00;94890.44;10571117;27;1925;-76
2022/12/23 14:47:10;;;;;;;;;;;10.50;99.90;;;9.63;100.00;94880.50;10566486;27;1991;-78
2022/12/23 14:52:17;;;;;;;;;;;10.50;99.90;;;9.60;100.00;94871.13;10571720;27;1913;-73
2022/12/23 14:57:28;;;;;;;;;;;10.50;99.90;;;9.58;100.00;94873.31;10564015;27;1998;-75
2022/12/23 15:02:46;;;;;;;;;;;10.50;99.90;;;9.59;100.00;94869.53;10569589;27;1905;-75
2022/12/23 15:07:51;;;;;;;;;;;10.40;99.90;;;9.54;100.00;94877.63;10568550;27;2059;-76
2022/12/23 15:12:56;;;;;;;;;;;10.40;99.90;;;9.55;100.00;94875.78;10570769;27;1977;-76
2022/12/23 15:18:01;;;;;;;;;;;10.40;99.90;;;9.49;100.00;94877.72;10566602;27;1985;-74
2022/12/23 15:23:05;;;;;;;;;;;10.40;99.90;;;9.48;100.00;94874.25;10572281;28;1959;-75
2022/12/23 15:28:11;;;;;;;;;;;10.30;99.90;;;9.40;100.00;94871.41;10572689;27;5016;-75
2022/12/23 15:33:17;;;;;;;;;;;10.30;99.90;;;9.36;100.00;94865.81;10573839;27;2231;-75
2022/12/23 15:38:42;;;;;;;;;;;10.30;99.90;;;9.31;100.00;94873.94;10559995;27;2093;-75
2022/12/23 15:43:48;;;;;;;;;;;10.20;99.90;;;9.35;100.00;94874.13;10576271;27;2155;-75
2022/12/23 15:48:57;;;;;;;;;;;10.30;99.90;;;9.37;100.00;94867.41;10565218;27;2008;-76
2022/12/23 15:54:01;;;;;;;;;;;10.20;99.90;;;9.38;100.00;94869.00;10561521;27;2075;-75
2022/12/23 15:59:06;;;;;;;;;;;10.30;99.90;;;9.37;100.00;94866.63;10560600;27;1930;-79
2022/12/23 16:04:11;;;;;;;;;;;10.30;99.90;;;9.36;100.00;94870.38;10566804;27;2021;-76
2022/12/23 16:09:19;;;;;;;;;;;10.30;99.90;;;9.38;100.00;94860.16;10569744;27;1978;-76
2022/12/23 16:14:26;;;;;;;;;;;10.20;99.90;;;9.38;100.00;94860.97;10570055;27;1882;-75
2022/12/23 16:19:32;;;;;;;;;;;10.30;99.90;;;9.39;100.00;94859.88;10562135;27;1909;-76
2022/12/23 16:24:37;;;;;;;;;;;10.30;99.90;;;9.45;100.00;94844.50;10568888;27;1986;-76
2022/12/23 16:29:43;;;;;;;;;;;10.30;99.90;;;9.44;100.00;94846.41;10551111;28;5187;-75
2022/12/23 16:34:47;;;;;;;;;;;10.30;99.90;;;9.45;100.00;94841.81;10560351;28;2013;-76
2022/12/23 16:39:53;;;;;;;;;;;10.30;99.90;;;9.51;100.00;94859.44;10580943;27;2064;-75
2022/12/23 16:44:56;;;;;;;;;;;10.40;99.90;;;9.53;100.00;94873.38;10571932;27;2161;-76
2022/12/23 16:50:01;;;;;;;;;;;10.50;99.90;;;9.57;100.00;94854.81;10573275;28;1913;-76
2022/12/23 16:55:05;;;;;;;;;;;10.50;99.90;;;9.61;100.00;94856.63;10566811;28;1921;-75
2022/12/23 17:00:08;;;;;;;;;;;10.50;99.90;;;9.64;100.00;94864.09;10578679;27;2149;-76
2022/12/23 17:05:15;;;;;;;;;;;10.50;99.90;;;9.78;100.00;94860.69;10585222;27;2056;-75
2022/12/23 17:10:20;;;;;;;;;;;10.60;99.90;;;9.84;100.00;94868.38;10588547;27;1913;-75
2022/12/23 17:15:28;;;;;;;;;;;10.60;99.90;;;9.88;100.00;94863.25;10548136;28;2050;-77
2022/12/23 17:20:35;;;;;;;;;;;10.70;99.90;;;9.89;100.00;94856.78;10564922;28;1913;-75
2022/12/23 17:25:54;;;;;;;;;;;10.80;99.90;;;9.93;100.00;94873.91;10585733;27;2124;-78
2022/12/23 17:30:57;;;;;;;;;;;10.80;99.90;;;10.00;100.00;94874.34;10598064;27;2121;-77
2022/12/23 17:36:02;;;;;;;;;;;10.80;99.90;;;10.08;100.00;94876.34;10585926;27;1766;-77
2022/12/23 17:41:12;;;;;;;;;;;11.00;99.90;;;10.12;100.00;94877.38;10559023;27;1919;-76
2022/12/23 17:46:19;;;;;;;;;;;11.00;99.90;;;10.21;100.00;94867.56;10578283;27;1945;-76
2022/12/23 17:51:23;;;;;;;;;;;11.00;99.90;;;10.19;100.00;94885.06;10571243;27;2083;-76
2022/12/23 17:56:26;;;;;;;;;;;11.10;99.90;;;10.15;100.00;94886.72;10564153;27;2023;-76
2022/12/23 18:01:30;;;;;;;;;;;11.10;99.90;;;10.11;100.00;94874.97;10566355;27;1984;-77
2022/12/23 18:06:35;;;;;;;;;;;11.00;99.90;;;10.15;100.00;94866.03;10582867;27;1975;-77
2022/12/23 18:11:42;;;;;;;;;;;11.00;99.90;;;10.10;100.00;94865.31;10544352;27;1894;-76
2022/12/23 18:16:54;;;;;;;;;;;11.00;99.90;;;9.98;100.00;94876.50;10549836;28;1983;-77
2022/12/23 18:21:59;;;;;;;;;;;11.00;99.90;;;9.92;100.00;94862.34;10556008;27;2077;-77
2022/12/23 18:27:03;;;;;;;;;;;10.90;99.90;;;10.01;100.00;94875.94;10581547;27;5060;-77
2022/12/23 18:32:07;;;;;;;;;;;10.90;99.90;;;9.99;100.00;94868.16;10589880;27;1961;-77
2022/12/23 18:37:13;;;;;;;;;;;10.90;99.90;;;9.97;100.00;94870.31;10567354;27;2148;-78
2022/12/23 18:42:18;;;;;;;;;;;11.00;99.90;;;9.98;100.00;94865.75;10570987;27;1962;-77
2022/12/23 18:47:23;;;;;;;;;;;11.00;99.90;;;9.98;100.00;94865.75;10570531;27;2061;-77
2022/12/23 18:52:30;;;;;;;;;;;11.00;99.90;;;10.03;100.00;94857.63;10571332;27;1984;-77
2022/12/23 18:57:33;;;;;;;;;;;11.00;99.90;;;10.11;100.00;94848.91;10560898;27;2017;-76
2022/12/23 19:02:39;;;;;;;;;;;11.00;99.90;;;10.06;100.00;94851.69;10572335;27;1961;-77
2022/12/23 19:07:48;;;;;;;;;;;11.10;99.90;;;10.16;100.00;94848.03;10572124;27;2050;-76
2022/12/23 19:12:52;;;;;;;;;;;11.10;99.90;;;10.11;100.00;94848.91;10547974;28;1919;-76
2022/12/23 19:17:57;;;;;;;;;;;11.10;99.90;;;10.29;100.00;94863.44;10548650;28;2029;-77
2022/12/23 19:23:01;;;;;;;;;;;11.20;99.90;;;10.33;100.00;94869.03;10580599;27;2026;-78
2022/12/23 19:28:04;;;;;;;;;;;11.30;99.90;;;10.28;100.00;94857.25;10573403;27;4931;-77
2022/12/23 19:33:08;;;;;;;;;;;11.20;99.90;;;10.29;100.00;94845.41;10579914;27;1956;-76
2022/12/23 19:38:14;;;;;;;;;;;11.20;99.90;;;10.24;100.00;94856.28;10573592;27;1965;-77
2022/12/23 19:43:22;;;;;;;;;;;11.30;99.90;;;10.28;100.00;94864.53;10565398;27;2031;-77
2022/12/23 19:48:28;;;;;;;;;;;11.20;99.90;;;10.30;100.00;94862.31;10552379;27;2109;-77
2022/12/23 19:53:36;;;;;;;;;;;11.20;99.90;;;10.25;100.00;94879.34;10554845;27;2164;-76
2022/12/23 19:58:43;;;;;;;;;;;11.20;99.90;;;10.27;100.00;94879.84;10569269;27;2093;-76
2022/12/23 20:03:48;;;;;;;;;;;11.30;99.90;;;10.39;100.00;94868.66;10573442;27;2092;-77
2022/12/23 20:08:57;;;;;;;;;;;11.20;99.90;;;10.46;100.00;94893.25;10577131;27;1924;-77
2022/12/23 20:14:05;;;;;;;;;;;11.40;99.90;;;10.45;100.00;94886.28;10568681;27;2068;-77
2022/12/23 20:19:11;;;;;;;;;;;11.40;99.90;;;10.57;100.00;94893.88;10563138;28;2054;-77
2022/12/23 20:24:14;;;;;;;;;;;11.40;99.90;;;10.61;100.00;94889.50;10588130;27;2039;-76
2022/12/23 20:29:19;;;;;;;;;;;11.50;99.90;;;10.68;100.00;94897.97;10578629;27;5043;-77
2022/12/23 20:34:24;;;;;;;;;;;11.80;99.90;;;10.79;100.00;94888.63;10561583;28;2015;-77
2022/12/23 20:39:30;;;;;;;;;;;11.60;99.90;;;10.80;100.00;94902.88;10571355;27;1953;-76
2022/12/23 20:44:34;;;;;;;;;;;11.70;99.90;;;10.82;100.00;94896.13;10546016;28;2153;-77
2022/12/23 20:49:39;;;;;;;;;;;11.70;99.90;;;10.77;100.00;94915.03;10567935;28;1961;-75
2022/12/23 20:54:44;;;;;;;;;;;11.70;99.90;;;10.60;100.00;94936.28;10577685;27;1959;-77
2022/12/23 20:59:47;;;;;;;;;;;11.60;99.90;;;10.40;100.00;94948.16;10571923;27;2072;-77
2022/12/23 21:04:51;;;;;;;;;;;11.40;99.90;;;10.28;100.00;94959.31;10548568;27;1870;-75
2022/12/23 21:09:55;;;;;;;;;;;11.20;99.90;;;10.17;100.00;94954.34;10588622;27;2135;-77
2022/12/23 21:15:03;;;;;;;;;;;11.10;99.90;;;10.10;100.00;94935.94;10573303;27;2211;-75
2022/12/23 21:20:09;;;;;;;;;;;11.00;99.90;;;10.12;100.00;95033.13;10573453;27;1864;-73
2022/12/23 21:25:14;;;;;;;;;;;11.00;99.90;;;10.04;100.00;95004.22;10576462;27;1989;-75
2022/12/23 21:30:21;;;;;;;;;;;10.90;99.90;;;9.94;100.00;95002.47;10555047;27;4990;-75
2022/12/23 21:35:28;;;;;;;;;;;10.90;99.90;;;9.62;100.00;95043.38;10565181;28;1980;-75
2022/12/23 21:40:36;;;;;;;;;;;10.80;99.90;;;9.22;100.00;95052.59;10564137;28;1898;-75
2022/12/23 21:45:46;;;;;;;;;;;10.40;99.90;;;8.95;100.00;95034.34;10567605;27;2128;-75
2022/12/23 21:50:57;;;;;;;;;;;10.20;99.90;;;8.94;100.00;95048.84;10589810;27;2076;-76
2022/12/23 21:56:06;;;;;;;;;;;9.90;99.90;;;8.95;100.00;95063.84;10568398;27;1946;-74
2022/12/23 22:01:19;;;;;;;;;;;9.90;99.90;;;8.92;100.00;95064.41;10543591;27;2066;-73
2022/12/23 22:06:23;;;;;;;;;;;9.90;99.90;;;8.90;100.00;95042.44;10559205;27;2220;-74
2022/12/23 22:11:28;;;;;;;;;;;9.70;99.90;;;8.93;100.00;95050.72;10593272;27;2135;-77
2022/12/23 22:16:32;;;;;;;;;;;9.70;99.90;;;9.05;100.00;95068.34;10563843;27;1963;-75
2022/12/23 22:21:41;;;;;;;;;;;9.90;99.90;;;9.14;100.00;95069.31;10592713;27;2094;-76
2022/12/23 22:26:48;;;;;;;;;;;10.20;99.90;;;9.40;100.00;95048.44;10567156;27;5024;-77
2022/12/23 22:31:52;;;;;;;;;;;10.20;99.90;;;9.55;100.00;95075.13;10574627;27;2096;-78
2022/12/23 22:36:56;;;;;;;;;;;10.40;99.90;;;9.67;100.00;95075.53;10589743;28;2139;-75
2022/12/23 22:42:01;;;;;;;;;;;10.50;99.90;;;9.69;100.00;95064.50;10581577;28;1949;-78
2022/12/23 22:47:07;;;;;;;;;;;10.60;99.90;;;9.71;100.00;95071.19;10580531;27;1970;-74
2022/12/23 22:52:11;;;;;;;;;;;10.60;99.90;;;9.72;100.00;95099.59;10578567;27;1988;-73
2022/12/23 22:57:17;;;;;;;;;;;10.60;99.90;;;9.62;100.00;95091.69;10552659;27;1966;-75
2022/12/23 23:02:21;;;;;;;;;;;10.50;99.90;;;9.62;100.00;95105.09;10570517;27;2052;-74
2022/12/23 23:07:28;;;;;;;;;;;10.50;99.90;;;9.55;100.00;95067.06;10557828;27;1941;-76
2022/12/23 23:12:32;;;;;;;;;;;10.40;99.90;;;9.50;100.00;95090.47;10530390;27;2098;-74
2022/12/23 23:17:36;;;;;;;;;;;10.40;99.90;;;9.54;100.00;95092.28;10578536;27;2152;-76
2022/12/23 23:22:41;;;;;;;;;;;10.30;99.90;;;9.50;100.00;95080.53;10566173;28;2226;-76
2022/12/23 23:27:48;;;;;;;;;;;10.40;99.90;;;9.44;100.00;95076.28;10571174;27;5104;-77
2022/12/23 23:32:59;;;;;;;;;;;10.30;99.90;;;9.38;100.00;95101.56;10574517;27;1981;-76
2022/12/23 23:38:09;;;;;;;;;;;10.30;99.90;;;9.39;100.00;95113.88;10570741;27;2010;-76
2022/12/23 23:43:15;;;;;;;;;;;10.30;99.90;;;9.40;100.00;95104.75;10578154;27;1973;-77
2022/12/23 23:48:21;;;;;;;;;;;10.30;99.90;;;9.43;100.00;95128.34;10574716;27;1941;-75
2022/12/23 23:53:28;;;;;;;;;;;10.40;99.90;;;9.40;100.00;95123.53;10582912;27;1894;-76